Flight Track Log - Related Links

Times and Time Zones

All times are in EDT time to prevent confusion due to time zone crossing. See the DAL3926 flight status page for this flight to view local times or setup timezone preferences in your user account.

Time Position Orientation Groundspeed Altitude Reporting Facility
EDT Latitude Longitude Course Direction KTS MPH feet Rate Location/Type
Mon 12:21:53 PM 44.9047 -93.2364 45° Northeast 159 183 2,300  Level FAA TRACON SMA TRACON (SMA)
Mon 12:22:13 PM 44.9164 -93.2425 340° North 149 171 2,800 1,350 Climbing FAA TRACON SMA TRACON (SMA)
Mon 12:22:33 PM 44.9317 -93.2500 341° North 174 200 3,200 2,100 Climbing FAA TRACON SMA TRACON (SMA)
Mon 12:22:53 PM 44.9483 -93.2575 342° North 199 229 4,200 2,400 Climbing FAA TRACON SMA TRACON (SMA)
Mon 12:23:13 PM 44.9703 -93.2536 North 216 249 4,800 1,200 Climbing FAA TRACON SMA TRACON (SMA)
Mon 12:23:33 PM 44.9903 -93.2425 21° North 241 277 5,000 1,902 Climbing FAA TRACON SMA TRACON (SMA)
Mon 12:23:54 PM 45.0175 -93.2275 21° North 270 311 6,100 2,850 Climbing FAA TRACON SMA TRACON (SMA)
Mon 12:24:00 PM 45.1226 -93.3586 332° Northwest  Level FlightAware Approximate
Mon 12:24:13 PM 45.0406 -93.2153 21° North 285 328 6,900  Level FAA TRACON SMA TRACON (SMA)
Mon 12:24:33 PM 45.0639 -93.2022 22° Northeast 292 336 8,000 3,220 Climbing FAA TRACON SMA TRACON (SMA)
Mon 12:24:54 PM 45.0933 -93.1864 21° North 295 339 9,100 2,850 Climbing FAA TRACON SMA TRACON (SMA)
Mon 12:25:00 PM 45.1901 -93.2872 45° Northeast  Level FlightAware Approximate
Mon 12:25:13 PM 45.1172 -93.1736 21° North 300 345 9,900  Level FAA TRACON SMA TRACON (SMA)
Mon 12:25:34 PM 45.1419 -93.1594 22° Northeast 308 354 10,400 955 Climbing FAA TRACON SMA TRACON (SMA)
Mon 12:25:57 PM 45.1689 -93.1447 21° North 328 377 10,600 1,286 Climbing FAA TRACON SMA TRACON (SMA)
Mon 12:26:00 PM 45.2552 -93.1950 45° Northeast  Level FlightAware Approximate
Mon 12:26:16 PM 45.2114 -93.1208 22° Northeast 357 411 11,300  Level FAA TRACON SMA TRACON (SMA)
Mon 12:26:33 PM 45.2333 -93.1100 19° North 363 418 11,900 2,432 Climbing FAA TRACON SMA TRACON (SMA)
Mon 12:26:53 PM 45.2703 -93.0892 22° Northeast 370 426 12,800 2,100 Climbing FAA TRACON SMA TRACON (SMA)
Mon 12:27:00 PM 45.3200 -93.1024 45° Northeast  Level FlightAware Approximate
Mon 12:27:13 PM 45.3006 -93.0719 22° Northeast 377 434 13,300  Level FAA TRACON SMA TRACON (SMA)
Mon 12:27:34 PM 45.3308 -93.0553 21° North 383 441 13,900 2,100 Climbing FAA TRACON SMA TRACON (SMA)
Mon 12:27:53 PM 45.3700 -93.0342 21° North 390 449 14,700 1,500 Climbing FAA TRACON SMA TRACON (SMA)
Mon 12:28:14 PM 45.4019 -93.0169 21° North 397 457 14,900 439 Climbing FAA TRACON SMA TRACON (SMA)
Mon 12:28:34 PM 45.4347 -92.9983 22° Northeast 409 471 15,000 154 Climbing FAA TRACON SMA TRACON (SMA)
Mon 12:28:53 PM 45.4681 -92.9800 21° North 417 480 15,000  Level FAA TRACON SMA TRACON (SMA)
Mon 12:29:14 PM 45.5103 -92.9572 21° North 421 484 15,000 -146 Level FAA TRACON SMA TRACON (SMA)
Mon 12:29:34 PM 45.5439 -92.9392 21° North 421 484 14,900 -150 Descending FAA TRACON SMA TRACON (SMA)
Mon 12:29:54 PM 45.5861 -92.9153 22° Northeast 424 488 14,900  Level FAA TRACON SMA TRACON (SMA)
Mon 12:30:14 PM 45.6203 -92.8978 20° North 424 488 14,900  Level FAA TRACON SMA TRACON (SMA)
Mon 12:30:34 PM 45.6539 -92.8789 21° North 424 488 14,900  Level FAA TRACON SMA TRACON (SMA)
Mon 12:30:55 PM 45.6961 -92.8553 21° North 422 486 14,900  Level FAA TRACON SMA TRACON (SMA)
Mon 12:31:15 PM 45.7294 -92.8356 22° Northeast 422 486 14,900  Level FAA TRACON SMA TRACON (SMA)
Mon 12:31:35 PM 45.7628 -92.8175 21° North 421 484 14,900  Level FAA TRACON SMA TRACON (SMA)
Mon 12:31:55 PM 45.8047 -92.7953 20° North 418 481 14,900  Level FAA TRACON SMA TRACON (SMA)
Mon 12:32:15 PM 45.8378 -92.7747 23° Northeast 420 483 14,900 97 Level FAA TRACON SMA TRACON (SMA)
Mon 12:32:57 PM 45.9022 -92.7336 24° Northeast 417 480 15,000 58 Climbing Minneapolis Center
Mon 12:33:59 PM 46.0100 -92.6719 22° Northeast 416 479 15,000  Level Minneapolis Center
Mon 12:35:00 PM 46.0887 -92.6384 23° Northeast  Level FlightAware Approximate
Mon 12:35:00 PM 46.1178 -92.6142 23° Northeast 417 480 15,000  Level Minneapolis Center
Mon 12:36:02 PM 46.2436 -92.5406 22° Northeast 414 476 14,700 -726 Descending Minneapolis Center
Mon 12:37:04 PM 46.3375 -92.4839 23° Northeast 393 452 13,500 -1,415 Descending Minneapolis Center
Mon 12:38:05 PM 46.4194 -92.4375 21° North 352 405 11,800 -1,707 Descending Minneapolis Center
Mon 12:39:07 PM 46.5003 -92.4389 359° North 317 365 10,000 -1,742 Descending Minneapolis Center
Mon 12:40:09 PM 46.5786 -92.4553 352° North 298 343 8,200 -1,548 Descending Minneapolis Center
Mon 12:41:11 PM 46.6525 -92.4733 350° North 283 326 6,800 -1,463 Descending Minneapolis Center
Mon 12:42:12 PM 46.7197 -92.4756 359° North 264 304 5,200 -878 Descending Minneapolis Center
Mon 12:43:14 PM 46.7800 -92.4586 11° North 242 278 5,000 -387 Descending Minneapolis Center
Mon 12:44:16 PM 46.8222 -92.4300 25° Northeast 182 209 4,400 -537 Descending Minneapolis Center
Mon 12:45:17 PM 46.8375 -92.3756 68° East 157 181 3,900 -492 Descending Minneapolis Center

Login

Don't have an account? Register now (free) for customized features, flight alerts, and more!